Lisboa, Portugal

10:30 PM WEST em 24 de Agosto de 2016 (GMT +0100)
Lisbon | | Change Station

Elev 404 ft 38.78 °N, 9.14 °W | Updated 30 minutes ago

Clear
Céu Limpo
68 °F
Aparente 68 °F
N
12
Vento Variável Vento de NO

Hoje
Máxima -- | Mínima -- °F
--% Possibilidade de Precip.
Ontem
Máxima -- | Mínima -- °F
Precip. -- pol
Pressão 29.95 pol
Visibilidade -9999.0 milhas
Nuvens
Ponto de Orvalho 61 °F
Humidade 78%
Chuva 0.00 pol
Altura de Neve Não disponível
6:58 AM 8:18 PM
Lua minguante, 53% visible
METAR LPPT 242100Z 32010KT 290V350 CAVOK 20/16 Q1014
Pressão 29.95 pol
Visibilidade -9999.0 milhas
Nuvens
Ponto de Orvalho 61 °F
Humidade 78%
Chuva 0.00 pol
Altura de Neve Não disponível
6:58 AM 8:18 PM
Lua minguante, 53% visible
METAR LPPT 242100Z 32010KT 290V350 CAVOK 20/16 Q1014

10-Day Weather Forecast

×

Almanac

Astronomia

Aug. 24, 2016 Nascer Pôr
Hora atual
Crepúsculo civil
Crepúsculo náutico
Crepúsculo astronómico
Lua
Comprimento da luz visível
Duração do Dia
Tomorrow will be .
, % of the Moon is Illuminated

Extremos de Hoje

Altitude na localidade Altura mais baixa na localidade

Community

WunderPhotos

Upload Photos

1,934,719 fotografias inseridas!

WunderBlog® & News

Nearby

Qualidade do Ar

  Qualidade do Ar Índice da Q.A. Poluente
Not available.

Altura da Neve

Estação altura Altitude

Actividade Sísmisca

Cidade Distância Mag. Hora & Data
Mínima magnitude apresentada é 2.5.

Temperaturas das Águas Costeiras

Local Temperatura

Stations

Estações Meteorológicas Próximas

Localização da Estação Temp. Sensação Térmica Ponto de Orvalho Humidade Vento Precip. Elev Actualizado Tipo